sensor_id;sensor_type;location;lat;lon;timestamp;temperature;humidity
6986;DHT22;3533;51.246;6.850;2023-11-21T00:01:45;20.50;45.10
6986;DHT22;3533;51.246;6.850;2023-11-21T00:04:11;20.40;45.00
6986;DHT22;3533;51.246;6.850;2023-11-21T00:06:36;20.40;45.00
6986;DHT22;3533;51.246;6.850;2023-11-21T00:09:02;20.40;45.00
6986;DHT22;3533;51.246;6.850;2023-11-21T00:11:28;20.40;45.00
6986;DHT22;3533;51.246;6.850;2023-11-21T00:13:54;20.40;45.00
6986;DHT22;3533;51.246;6.850;2023-11-21T00:16:20;20.40;45.10
6986;DHT22;3533;51.246;6.850;2023-11-21T00:18:45;20.40;45.00
6986;DHT22;3533;51.246;6.850;2023-11-21T00:21:12;20.40;45.00
6986;DHT22;3533;51.246;6.850;2023-11-21T00:23:38;20.40;45.10
6986;DHT22;3533;51.246;6.850;2023-11-21T00:26:03;20.40;45.00
6986;DHT22;3533;51.246;6.850;2023-11-21T00:28:29;20.40;45.00
6986;DHT22;3533;51.246;6.850;2023-11-21T00:30:55;20.40;45.00
6986;DHT22;3533;51.246;6.850;2023-11-21T00:33:21;20.40;45.00
6986;DHT22;3533;51.246;6.850;2023-11-21T00:35:46;20.40;45.00
6986;DHT22;3533;51.246;6.850;2023-11-21T00:38:12;20.40;45.00
6986;DHT22;3533;51.246;6.850;2023-11-21T00:40:37;20.40;45.10
6986;DHT22;3533;51.246;6.850;2023-11-21T00:43:03;20.40;45.00
6986;DHT22;3533;51.246;6.850;2023-11-21T00:45:29;20.40;45.00
6986;DHT22;3533;51.246;6.850;2023-11-21T00:47:54;20.40;45.00
6986;DHT22;3533;51.246;6.850;2023-11-21T00:50:21;20.40;45.00
6986;DHT22;3533;51.246;6.850;2023-11-21T00:52:46;20.40;45.00
6986;DHT22;3533;51.246;6.850;2023-11-21T00:55:12;20.40;45.00
6986;DHT22;3533;51.246;6.850;2023-11-21T00:57:38;20.40;45.00
6986;DHT22;3533;51.246;6.850;2023-11-21T01:00:04;20.40;45.00
6986;DHT22;3533;51.246;6.850;2023-11-21T01:02:38;20.40;45.00
6986;DHT22;3533;51.246;6.850;2023-11-21T01:05:04;20.40;45.10
6986;DHT22;3533;51.246;6.850;2023-11-21T01:07:33;20.40;45.00
6986;DHT22;3533;51.246;6.850;2023-11-21T01:09:58;20.40;45.00
6986;DHT22;3533;51.246;6.850;2023-11-21T01:12:24;20.40;45.00
6986;DHT22;3533;51.246;6.850;2023-11-21T01:14:50;20.40;45.00
6986;DHT22;3533;51.246;6.850;2023-11-21T01:17:16;20.40;45.00
6986;DHT22;3533;51.246;6.850;2023-11-21T01:19:43;20.40;45.00
6986;DHT22;3533;51.246;6.850;2023-11-21T01:22:09;20.40;45.00
6986;DHT22;3533;51.246;6.850;2023-11-21T01:24:34;20.40;45.00
6986;DHT22;3533;51.246;6.850;2023-11-21T01:27:00;20.40;45.00
6986;DHT22;3533;51.246;6.850;2023-11-21T01:29:25;20.40;45.00
6986;DHT22;3533;51.246;6.850;2023-11-21T01:31:51;20.40;45.00
6986;DHT22;3533;51.246;6.850;2023-11-21T01:34:17;20.40;45.00
6986;DHT22;3533;51.246;6.850;2023-11-21T01:36:42;20.40;45.00
6986;DHT22;3533;51.246;6.850;2023-11-21T01:39:08;20.40;45.00
6986;DHT22;3533;51.246;6.850;2023-11-21T01:41:34;20.40;45.00
6986;DHT22;3533;51.246;6.850;2023-11-21T01:44:00;20.40;45.00
6986;DHT22;3533;51.246;6.850;2023-11-21T01:46:26;20.40;45.00
6986;DHT22;3533;51.246;6.850;2023-11-21T01:48:52;20.40;45.00
6986;DHT22;3533;51.246;6.850;2023-11-21T01:51:19;20.40;45.00
6986;DHT22;3533;51.246;6.850;2023-11-21T01:53:45;20.40;45.00
6986;DHT22;3533;51.246;6.850;2023-11-21T01:56:12;20.40;45.00
6986;DHT22;3533;51.246;6.850;2023-11-21T01:58:39;20.40;45.00
6986;DHT22;3533;51.246;6.850;2023-11-21T02:01:04;20.40;45.00
6986;DHT22;3533;51.246;6.850;2023-11-21T02:03:30;20.40;45.00
6986;DHT22;3533;51.246;6.850;2023-11-21T02:05:56;20.40;45.00
6986;DHT22;3533;51.246;6.850;2023-11-21T02:08:22;20.40;45.00
6986;DHT22;3533;51.246;6.850;2023-11-21T02:10:47;20.40;45.10
6986;DHT22;3533;51.246;6.850;2023-11-21T02:13:13;20.40;45.80
6986;DHT22;3533;51.246;6.850;2023-11-21T02:15:39;20.40;45.00
6986;DHT22;3533;51.246;6.850;2023-11-21T02:18:04;20.40;45.00
6986;DHT22;3533;51.246;6.850;2023-11-21T02:20:31;20.40;45.10
6986;DHT22;3533;51.246;6.850;2023-11-21T02:23:00;20.40;45.10
6986;DHT22;3533;51.246;6.850;2023-11-21T02:25:30;20.40;45.10
6986;DHT22;3533;51.246;6.850;2023-11-21T02:27:58;20.40;45.80
6986;DHT22;3533;51.246;6.850;2023-11-21T02:30:24;20.40;45.10
6986;DHT22;3533;51.246;6.850;2023-11-21T02:32:59;20.40;45.20
6986;DHT22;3533;51.246;6.850;2023-11-21T02:35:25;20.40;45.10
6986;DHT22;3533;51.246;6.850;2023-11-21T02:37:53;20.40;45.10
6986;DHT22;3533;51.246;6.850;2023-11-21T02:40:19;20.40;45.10
6986;DHT22;3533;51.246;6.850;2023-11-21T02:42:50;20.40;45.10
6986;DHT22;3533;51.246;6.850;2023-11-21T02:45:22;20.40;45.20
6986;DHT22;3533;51.246;6.850;2023-11-21T02:47:48;20.40;45.10
6986;DHT22;3533;51.246;6.850;2023-11-21T02:50:18;20.40;45.10
6986;DHT22;3533;51.246;6.850;2023-11-21T02:52:44;20.40;45.20
6986;DHT22;3533;51.246;6.850;2023-11-21T02:55:10;20.40;45.10
6986;DHT22;3533;51.246;6.850;2023-11-21T02:57:36;20.40;45.10
6986;DHT22;3533;51.246;6.850;2023-11-21T03:00:01;20.30;45.10
6986;DHT22;3533;51.246;6.850;2023-11-21T03:02:27;20.30;45.10
6986;DHT22;3533;51.246;6.850;2023-11-21T03:04:53;20.40;45.10
6986;DHT22;3533;51.246;6.850;2023-11-21T03:07:18;20.40;45.20
6986;DHT22;3533;51.246;6.850;2023-11-21T03:09:45;20.40;45.20
6986;DHT22;3533;51.246;6.850;2023-11-21T03:12:11;20.40;45.10
6986;DHT22;3533;51.246;6.850;2023-11-21T03:14:38;20.40;45.10
6986;DHT22;3533;51.246;6.850;2023-11-21T03:17:03;20.40;45.10
6986;DHT22;3533;51.246;6.850;2023-11-21T03:19:30;20.30;45.10
6986;DHT22;3533;51.246;6.850;2023-11-21T03:21:55;20.40;45.20
6986;DHT22;3533;51.246;6.850;2023-11-21T03:24:21;20.40;45.30
6986;DHT22;3533;51.246;6.850;2023-11-21T03:26:48;20.40;45.20
6986;DHT22;3533;51.246;6.850;2023-11-21T03:29:13;20.30;45.10
6986;DHT22;3533;51.246;6.850;2023-11-21T03:31:40;20.30;45.20
6986;DHT22;3533;51.246;6.850;2023-11-21T03:34:06;20.30;45.10
6986;DHT22;3533;51.246;6.850;2023-11-21T03:36:31;20.40;45.30
6986;DHT22;3533;51.246;6.850;2023-11-21T03:38:57;20.30;45.20
6986;DHT22;3533;51.246;6.850;2023-11-21T03:41:23;20.30;45.20
6986;DHT22;3533;51.246;6.850;2023-11-21T03:43:48;20.30;45.20
6986;DHT22;3533;51.246;6.850;2023-11-21T03:46:14;20.30;45.10
6986;DHT22;3533;51.246;6.850;2023-11-21T03:48:39;20.40;45.30
6986;DHT22;3533;51.246;6.850;2023-11-21T03:51:05;20.30;45.20
6986;DHT22;3533;51.246;6.850;2023-11-21T03:53:31;20.30;45.20
6986;DHT22;3533;51.246;6.850;2023-11-21T03:55:57;20.40;45.30
6986;DHT22;3533;51.246;6.850;2023-11-21T03:58:23;20.30;45.30
6986;DHT22;3533;51.246;6.850;2023-11-21T04:00:48;20.30;45.30
6986;DHT22;3533;51.246;6.850;2023-11-21T04:03:17;20.30;45.20
6986;DHT22;3533;51.246;6.850;2023-11-21T04:05:42;20.30;45.20
6986;DHT22;3533;51.246;6.850;2023-11-21T04:08:08;20.30;45.10
6986;DHT22;3533;51.246;6.850;2023-11-21T04:10:33;20.30;45.20
6986;DHT22;3533;51.246;6.850;2023-11-21T04:13:00;20.30;45.20
6986;DHT22;3533;51.246;6.850;2023-11-21T04:15:25;20.30;45.20
6986;DHT22;3533;51.246;6.850;2023-11-21T04:17:51;20.30;45.10
6986;DHT22;3533;51.246;6.850;2023-11-21T04:20:17;20.30;45.20
6986;DHT22;3533;51.246;6.850;2023-11-21T04:22:43;20.40;45.20
6986;DHT22;3533;51.246;6.850;2023-11-21T04:25:15;20.30;45.10
6986;DHT22;3533;51.246;6.850;2023-11-21T04:27:41;20.30;45.30
6986;DHT22;3533;51.246;6.850;2023-11-21T04:30:09;20.30;45.20
6986;DHT22;3533;51.246;6.850;2023-11-21T04:32:35;20.30;45.30
6986;DHT22;3533;51.246;6.850;2023-11-21T04:35:01;20.30;45.30
6986;DHT22;3533;51.246;6.850;2023-11-21T04:37:26;20.30;45.30
6986;DHT22;3533;51.246;6.850;2023-11-21T04:39:52;20.30;45.30
6986;DHT22;3533;51.246;6.850;2023-11-21T04:42:17;20.30;45.20
6986;DHT22;3533;51.246;6.850;2023-11-21T04:44:43;20.40;45.30
6986;DHT22;3533;51.246;6.850;2023-11-21T04:47:09;20.30;45.20
6986;DHT22;3533;51.246;6.850;2023-11-21T04:49:35;20.40;45.20
6986;DHT22;3533;51.246;6.850;2023-11-21T04:52:01;20.40;45.10
6986;DHT22;3533;51.246;6.850;2023-11-21T04:54:27;20.40;45.80
6986;DHT22;3533;51.246;6.850;2023-11-21T04:56:53;20.40;45.00
6986;DHT22;3533;51.246;6.850;2023-11-21T04:59:18;20.40;45.00
6986;DHT22;3533;51.246;6.850;2023-11-21T05:01:44;20.40;45.00
6986;DHT22;3533;51.246;6.850;2023-11-21T05:04:09;20.40;45.00
6986;DHT22;3533;51.246;6.850;2023-11-21T05:06:35;20.40;45.00
6986;DHT22;3533;51.246;6.850;2023-11-21T05:09:00;20.40;45.00
6986;DHT22;3533;51.246;6.850;2023-11-21T05:11:27;20.40;45.00
6986;DHT22;3533;51.246;6.850;2023-11-21T05:13:52;20.40;45.00
6986;DHT22;3533;51.246;6.850;2023-11-21T05:16:19;20.50;45.10
6986;DHT22;3533;51.246;6.850;2023-11-21T05:18:45;20.50;45.10
6986;DHT22;3533;51.246;6.850;2023-11-21T05:21:11;20.50;45.10
6986;DHT22;3533;51.246;6.850;2023-11-21T05:23:36;20.50;45.90
6986;DHT22;3533;51.246;6.850;2023-11-21T05:26:03;20.50;45.10
6986;DHT22;3533;51.246;6.850;2023-11-21T05:28:28;20.50;45.10
6986;DHT22;3533;51.246;6.850;2023-11-21T05:30:54;20.50;45.10
6986;DHT22;3533;51.246;6.850;2023-11-21T05:33:20;20.50;45.10
6986;DHT22;3533;51.246;6.850;2023-11-21T05:35:46;20.50;45.10
6986;DHT22;3533;51.246;6.850;2023-11-21T05:38:12;20.60;45.20
6986;DHT22;3533;51.246;6.850;2023-11-21T05:40:37;20.50;45.10
6986;DHT22;3533;51.246;6.850;2023-11-21T05:43:03;20.60;45.20
6986;DHT22;3533;51.246;6.850;2023-11-21T05:45:30;20.50;45.10
6986;DHT22;3533;51.246;6.850;2023-11-21T05:47:57;20.50;45.10
6986;DHT22;3533;51.246;6.850;2023-11-21T05:50:22;20.50;45.10
6986;DHT22;3533;51.246;6.850;2023-11-21T05:52:48;20.50;45.10
6986;DHT22;3533;51.246;6.850;2023-11-21T05:55:15;20.60;45.20
6986;DHT22;3533;51.246;6.850;2023-11-21T05:57:42;20.50;45.10
6986;DHT22;3533;51.246;6.850;2023-11-21T06:00:10;20.50;45.10
6986;DHT22;3533;51.246;6.850;2023-11-21T06:02:38;20.60;45.20
6986;DHT22;3533;51.246;6.850;2023-11-21T06:05:06;20.60;45.20
6986;DHT22;3533;51.246;6.850;2023-11-21T06:07:32;20.60;45.20
6986;DHT22;3533;51.246;6.850;2023-11-21T06:09:57;20.60;45.20
6986;DHT22;3533;51.246;6.850;2023-11-21T06:12:23;20.60;45.20
6986;DHT22;3533;51.246;6.850;2023-11-21T06:14:48;20.50;45.10
6986;DHT22;3533;51.246;6.850;2023-11-21T06:17:14;20.50;45.20
6986;DHT22;3533;51.246;6.850;2023-11-21T06:19:39;20.50;45.10
6986;DHT22;3533;51.246;6.850;2023-11-21T06:22:05;20.60;45.20
6986;DHT22;3533;51.246;6.850;2023-11-21T06:24:31;20.50;45.10
6986;DHT22;3533;51.246;6.850;2023-11-21T06:26:57;20.50;45.10
6986;DHT22;3533;51.246;6.850;2023-11-21T06:29:22;20.50;45.10
6986;DHT22;3533;51.246;6.850;2023-11-21T06:31:48;20.60;45.20
6986;DHT22;3533;51.246;6.850;2023-11-21T06:34:14;20.60;45.20
6986;DHT22;3533;51.246;6.850;2023-11-21T06:36:40;20.60;45.20
6986;DHT22;3533;51.246;6.850;2023-11-21T06:39:05;20.60;45.20
6986;DHT22;3533;51.246;6.850;2023-11-21T06:41:33;20.60;45.20
6986;DHT22;3533;51.246;6.850;2023-11-21T06:43:59;20.60;45.20
6986;DHT22;3533;51.246;6.850;2023-11-21T06:46:24;20.60;45.20
6986;DHT22;3533;51.246;6.850;2023-11-21T06:48:50;20.60;45.20
6986;DHT22;3533;51.246;6.850;2023-11-21T06:51:16;20.60;45.20
6986;DHT22;3533;51.246;6.850;2023-11-21T06:53:41;20.60;45.20
6986;DHT22;3533;51.246;6.850;2023-11-21T06:56:19;20.60;45.20
6986;DHT22;3533;51.246;6.850;2023-11-21T06:58:45;20.60;45.30
6986;DHT22;3533;51.246;6.850;2023-11-21T07:01:12;20.60;45.20
6986;DHT22;3533;51.246;6.850;2023-11-21T07:03:39;20.60;45.20
6986;DHT22;3533;51.246;6.850;2023-11-21T07:06:05;20.60;45.20
6986;DHT22;3533;51.246;6.850;2023-11-21T07:08:30;20.60;45.20
6986;DHT22;3533;51.246;6.850;2023-11-21T07:10:56;20.60;45.20
6986;DHT22;3533;51.246;6.850;2023-11-21T07:13:21;20.60;45.20
6986;DHT22;3533;51.246;6.850;2023-11-21T07:15:47;20.60;45.20
6986;DHT22;3533;51.246;6.850;2023-11-21T07:18:13;20.60;45.20
6986;DHT22;3533;51.246;6.850;2023-11-21T07:20:39;20.60;45.20
6986;DHT22;3533;51.246;6.850;2023-11-21T07:23:04;20.60;45.20
6986;DHT22;3533;51.246;6.850;2023-11-21T07:25:31;20.60;45.20
6986;DHT22;3533;51.246;6.850;2023-11-21T07:27:57;20.60;45.20
6986;DHT22;3533;51.246;6.850;2023-11-21T07:30:23;20.60;45.20
6986;DHT22;3533;51.246;6.850;2023-11-21T07:32:48;20.60;45.20
6986;DHT22;3533;51.246;6.850;2023-11-21T07:35:14;20.60;45.20
6986;DHT22;3533;51.246;6.850;2023-11-21T07:37:40;20.60;45.20
6986;DHT22;3533;51.246;6.850;2023-11-21T07:40:06;20.60;45.20
6986;DHT22;3533;51.246;6.850;2023-11-21T07:42:34;20.60;45.20
6986;DHT22;3533;51.246;6.850;2023-11-21T07:44:59;20.60;45.30
6986;DHT22;3533;51.246;6.850;2023-11-21T07:47:25;20.60;45.20
6986;DHT22;3533;51.246;6.850;2023-11-21T07:49:53;20.60;45.30
6986;DHT22;3533;51.246;6.850;2023-11-21T07:52:18;20.60;45.20
6986;DHT22;3533;51.246;6.850;2023-11-21T07:54:46;20.60;45.20
6986;DHT22;3533;51.246;6.850;2023-11-21T07:57:12;20.60;45.20
6986;DHT22;3533;51.246;6.850;2023-11-21T07:59:39;20.60;45.20
6986;DHT22;3533;51.246;6.850;2023-11-21T08:02:06;20.60;45.20
6986;DHT22;3533;51.246;6.850;2023-11-21T08:04:32;20.60;45.20
6986;DHT22;3533;51.246;6.850;2023-11-21T08:06:57;20.60;45.20
6986;DHT22;3533;51.246;6.850;2023-11-21T08:09:23;20.60;45.20
6986;DHT22;3533;51.246;6.850;2023-11-21T08:11:49;20.60;45.20
6986;DHT22;3533;51.246;6.850;2023-11-21T08:14:15;20.60;45.20
6986;DHT22;3533;51.246;6.850;2023-11-21T08:16:41;20.60;45.20
6986;DHT22;3533;51.246;6.850;2023-11-21T08:19:06;20.60;45.20
6986;DHT22;3533;51.246;6.850;2023-11-21T08:21:33;20.60;45.20
6986;DHT22;3533;51.246;6.850;2023-11-21T08:23:59;20.60;45.30
6986;DHT22;3533;51.246;6.850;2023-11-21T08:26:25;20.60;45.20
6986;DHT22;3533;51.246;6.850;2023-11-21T08:28:51;20.60;45.20
6986;DHT22;3533;51.246;6.850;2023-11-21T08:31:27;20.60;45.20
6986;DHT22;3533;51.246;6.850;2023-11-21T08:33:54;20.60;45.20
6986;DHT22;3533;51.246;6.850;2023-11-21T08:36:24;20.50;45.10
6986;DHT22;3533;51.246;6.850;2023-11-21T08:38:50;20.50;45.10
6986;DHT22;3533;51.246;6.850;2023-11-21T08:41:17;20.50;45.10
6986;DHT22;3533;51.246;6.850;2023-11-21T08:43:43;20.60;45.20
6986;DHT22;3533;51.246;6.850;2023-11-21T08:46:10;20.50;45.10
6986;DHT22;3533;51.246;6.850;2023-11-21T08:48:36;20.50;45.10
6986;DHT22;3533;51.246;6.850;2023-11-21T08:51:03;20.60;45.20
6986;DHT22;3533;51.246;6.850;2023-11-21T08:53:29;20.50;45.10
6986;DHT22;3533;51.246;6.850;2023-11-21T08:55:54;20.50;45.10
6986;DHT22;3533;51.246;6.850;2023-11-21T08:58:20;20.50;45.10
6986;DHT22;3533;51.246;6.850;2023-11-21T09:00:46;20.50;45.10
6986;DHT22;3533;51.246;6.850;2023-11-21T09:03:12;20.50;45.10
6986;DHT22;3533;51.246;6.850;2023-11-21T09:05:39;20.50;45.20
6986;DHT22;3533;51.246;6.850;2023-11-21T09:08:05;20.50;45.10
6986;DHT22;3533;51.246;6.850;2023-11-21T09:10:30;20.50;45.10
6986;DHT22;3533;51.246;6.850;2023-11-21T09:12:56;20.50;45.10
6986;DHT22;3533;51.246;6.850;2023-11-21T09:15:22;20.50;45.10
6986;DHT22;3533;51.246;6.850;2023-11-21T09:17:48;20.50;45.10
6986;DHT22;3533;51.246;6.850;2023-11-21T09:20:14;20.50;45.10
6986;DHT22;3533;51.246;6.850;2023-11-21T09:22:40;20.50;45.10
6986;DHT22;3533;51.246;6.850;2023-11-21T09:25:06;20.50;45.90
6986;DHT22;3533;51.246;6.850;2023-11-21T09:27:34;20.50;45.10
6986;DHT22;3533;51.246;6.850;2023-11-21T09:30:01;20.50;45.10
6986;DHT22;3533;51.246;6.850;2023-11-21T09:32:26;20.50;45.10
6986;DHT22;3533;51.246;6.850;2023-11-21T09:34:52;20.50;45.10
6986;DHT22;3533;51.246;6.850;2023-11-21T09:37:19;20.50;45.10
6986;DHT22;3533;51.246;6.850;2023-11-21T09:39:45;20.50;45.10
6986;DHT22;3533;51.246;6.850;2023-11-21T09:42:13;20.50;45.10
6986;DHT22;3533;51.246;6.850;2023-11-21T09:44:54;20.50;45.10
6986;DHT22;3533;51.246;6.850;2023-11-21T09:47:23;20.50;45.10
6986;DHT22;3533;51.246;6.850;2023-11-21T09:49:48;20.50;45.10
6986;DHT22;3533;51.246;6.850;2023-11-21T09:52:25;20.50;45.10
6986;DHT22;3533;51.246;6.850;2023-11-21T09:54:52;20.50;45.20
6986;DHT22;3533;51.246;6.850;2023-11-21T09:57:24;20.50;45.10
6986;DHT22;3533;51.246;6.850;2023-11-21T09:59:54;20.50;45.10
6986;DHT22;3533;51.246;6.850;2023-11-21T10:02:25;20.50;45.10
6986;DHT22;3533;51.246;6.850;2023-11-21T10:04:53;20.50;45.10
6986;DHT22;3533;51.246;6.850;2023-11-21T10:07:20;20.50;45.10
6986;DHT22;3533;51.246;6.850;2023-11-21T10:09:47;20.50;45.10
6986;DHT22;3533;51.246;6.850;2023-11-21T10:12:15;20.50;45.10
6986;DHT22;3533;51.246;6.850;2023-11-21T10:14:41;20.50;45.10
6986;DHT22;3533;51.246;6.850;2023-11-21T10:17:08;20.50;45.20
6986;DHT22;3533;51.246;6.850;2023-11-21T10:19:36;20.50;45.20
6986;DHT22;3533;51.246;6.850;2023-11-21T10:22:02;20.50;45.10
6986;DHT22;3533;51.246;6.850;2023-11-21T10:24:29;20.50;45.10
6986;DHT22;3533;51.246;6.850;2023-11-21T10:26:54;20.50;45.10
6986;DHT22;3533;51.246;6.850;2023-11-21T10:29:20;20.50;45.10
6986;DHT22;3533;51.246;6.850;2023-11-21T10:31:49;20.50;45.10
6986;DHT22;3533;51.246;6.850;2023-11-21T10:34:19;20.50;45.10
6986;DHT22;3533;51.246;6.850;2023-11-21T10:36:46;20.50;45.10
6986;DHT22;3533;51.246;6.850;2023-11-21T10:39:18;20.50;45.10
6986;DHT22;3533;51.246;6.850;2023-11-21T10:41:48;20.50;45.10
6986;DHT22;3533;51.246;6.850;2023-11-21T10:44:14;20.50;45.10
6986;DHT22;3533;51.246;6.850;2023-11-21T10:46:53;20.50;45.10
6986;DHT22;3533;51.246;6.850;2023-11-21T10:49:26;20.50;45.10
6986;DHT22;3533;51.246;6.850;2023-11-21T10:51:53;20.50;45.10
6986;DHT22;3533;51.246;6.850;2023-11-21T10:54:20;20.50;45.10
6986;DHT22;3533;51.246;6.850;2023-11-21T10:56:49;20.50;45.10
6986;DHT22;3533;51.246;6.850;2023-11-21T10:59:17;20.50;45.10
6986;DHT22;3533;51.246;6.850;2023-11-21T11:01:45;20.50;45.20
6986;DHT22;3533;51.246;6.850;2023-11-21T11:04:11;20.50;45.20
6986;DHT22;3533;51.246;6.850;2023-11-21T11:06:43;20.50;45.20
6986;DHT22;3533;51.246;6.850;2023-11-21T11:09:11;20.50;45.20
6986;DHT22;3533;51.246;6.850;2023-11-21T11:11:40;20.50;45.20
6986;DHT22;3533;51.246;6.850;2023-11-21T11:14:09;20.50;45.30
6986;DHT22;3533;51.246;6.850;2023-11-21T11:16:36;20.50;45.20
6986;DHT22;3533;51.246;6.850;2023-11-21T11:19:02;20.50;45.20
6986;DHT22;3533;51.246;6.850;2023-11-21T11:24:12;20.50;45.30
6986;DHT22;3533;51.246;6.850;2023-11-21T11:32:36;20.40;45.30
6986;DHT22;3533;51.246;6.850;2023-11-21T11:37:56;20.50;45.50
6986;DHT22;3533;51.246;6.850;2023-11-21T11:40:38;20.40;45.30
6986;DHT22;3533;51.246;6.850;2023-11-21T11:43:06;20.40;45.50
6986;DHT22;3533;51.246;6.850;2023-11-21T11:45:33;20.40;45.50
6986;DHT22;3533;51.246;6.850;2023-11-21T11:48:01;20.40;45.50
6986;DHT22;3533;51.246;6.850;2023-11-21T11:50:29;20.40;45.50
6986;DHT22;3533;51.246;6.850;2023-11-21T11:52:55;20.40;45.40
6986;DHT22;3533;51.246;6.850;2023-11-21T11:55:24;20.40;45.30
6986;DHT22;3533;51.246;6.850;2023-11-21T11:57:54;20.50;45.50
6986;DHT22;3533;51.246;6.850;2023-11-21T12:02:57;20.50;45.50
6986;DHT22;3533;51.246;6.850;2023-11-21T12:05:25;20.40;45.50
6986;DHT22;3533;51.246;6.850;2023-11-21T12:07:57;20.40;45.50
6986;DHT22;3533;51.246;6.850;2023-11-21T12:10:24;20.50;45.60
6986;DHT22;3533;51.246;6.850;2023-11-21T12:12:52;20.50;45.60
6986;DHT22;3533;51.246;6.850;2023-11-21T12:15:18;20.50;45.60
6986;DHT22;3533;51.246;6.850;2023-11-21T12:17:45;20.50;45.60
6986;DHT22;3533;51.246;6.850;2023-11-21T12:20:12;20.50;45.70
6986;DHT22;3533;51.246;6.850;2023-11-21T12:22:50;20.50;45.70
6986;DHT22;3533;51.246;6.850;2023-11-21T12:25:20;20.50;45.70
6986;DHT22;3533;51.246;6.850;2023-11-21T12:27:48;20.40;45.60
6986;DHT22;3533;51.246;6.850;2023-11-21T12:30:15;20.40;45.60
6986;DHT22;3533;51.246;6.850;2023-11-21T12:32:50;20.40;45.60
6986;DHT22;3533;51.246;6.850;2023-11-21T12:35:20;20.50;45.70
6986;DHT22;3533;51.246;6.850;2023-11-21T12:37:47;20.50;45.70
6986;DHT22;3533;51.246;6.850;2023-11-21T12:40:14;20.40;45.50
6986;DHT22;3533;51.246;6.850;2023-11-21T12:42:46;20.50;46.30
6986;DHT22;3533;51.246;6.850;2023-11-21T12:47:47;20.50;45.50
6986;DHT22;3533;51.246;6.850;2023-11-21T12:50:14;20.50;45.40
6986;DHT22;3533;51.246;6.850;2023-11-21T12:52:44;20.50;45.40
6986;DHT22;3533;51.246;6.850;2023-11-21T12:55:20;20.50;45.20
6986;DHT22;3533;51.246;6.850;2023-11-21T12:57:51;20.50;45.50
6986;DHT22;3533;51.246;6.850;2023-11-21T13:00:18;20.40;45.10
6986;DHT22;3533;51.246;6.850;2023-11-21T13:02:57;20.50;45.20
6986;DHT22;3533;51.246;6.850;2023-11-21T13:05:27;20.40;45.00
6986;DHT22;3533;51.246;6.850;2023-11-21T13:07:57;20.50;45.20
6986;DHT22;3533;51.246;6.850;2023-11-21T13:10:27;20.50;45.10
6986;DHT22;3533;51.246;6.850;2023-11-21T13:12:57;20.40;45.10
6986;DHT22;3533;51.246;6.850;2023-11-21T13:15:24;20.40;45.10
6986;DHT22;3533;51.246;6.850;2023-11-21T13:17:50;20.40;45.00
6986;DHT22;3533;51.246;6.850;2023-11-21T13:20:17;20.40;45.20
6986;DHT22;3533;51.246;6.850;2023-11-21T13:22:47;20.40;45.10
6986;DHT22;3533;51.246;6.850;2023-11-21T13:25:17;20.40;45.10
6986;DHT22;3533;51.246;6.850;2023-11-21T13:27:46;20.40;45.20
6986;DHT22;3533;51.246;6.850;2023-11-21T13:30:14;20.40;45.20
6986;DHT22;3533;51.246;6.850;2023-11-21T13:32:44;20.40;46.00
6986;DHT22;3533;51.246;6.850;2023-11-21T13:35:15;20.40;45.10
6986;DHT22;3533;51.246;6.850;2023-11-21T13:37:48;20.40;45.20
6986;DHT22;3533;51.246;6.850;2023-11-21T13:40:15;20.40;45.20
6986;DHT22;3533;51.246;6.850;2023-11-21T13:42:45;20.40;45.20
6986;DHT22;3533;51.246;6.850;2023-11-21T13:45:11;20.40;45.10
6986;DHT22;3533;51.246;6.850;2023-11-21T13:47:38;20.40;45.10
6986;DHT22;3533;51.246;6.850;2023-11-21T13:50:04;20.40;45.10
6986;DHT22;3533;51.246;6.850;2023-11-21T13:52:33;20.40;45.10
6986;DHT22;3533;51.246;6.850;2023-11-21T13:55:01;20.40;45.10
6986;DHT22;3533;51.246;6.850;2023-11-21T13:57:31;20.40;45.00
6986;DHT22;3533;51.246;6.850;2023-11-21T13:59:58;20.40;45.10
6986;DHT22;3533;51.246;6.850;2023-11-21T14:02:24;20.40;45.10
6986;DHT22;3533;51.246;6.850;2023-11-21T14:04:57;20.40;45.00
6986;DHT22;3533;51.246;6.850;2023-11-21T14:07:26;20.40;45.10
6986;DHT22;3533;51.246;6.850;2023-11-21T14:10:01;20.40;45.10
6986;DHT22;3533;51.246;6.850;2023-11-21T14:12:27;20.40;45.00
6986;DHT22;3533;51.246;6.850;2023-11-21T14:14:53;20.40;45.00
6986;DHT22;3533;51.246;6.850;2023-11-21T14:17:20;20.40;45.00
6986;DHT22;3533;51.246;6.850;2023-11-21T14:19:49;20.40;45.00
6986;DHT22;3533;51.246;6.850;2023-11-21T14:22:14;20.40;45.00
6986;DHT22;3533;51.246;6.850;2023-11-21T14:24:40;20.40;45.00
6986;DHT22;3533;51.246;6.850;2023-11-21T14:27:12;20.40;45.00
6986;DHT22;3533;51.246;6.850;2023-11-21T14:29:37;20.40;45.00
6986;DHT22;3533;51.246;6.850;2023-11-21T14:32:05;20.40;45.00
6986;DHT22;3533;51.246;6.850;2023-11-21T14:34:31;20.40;45.10
6986;DHT22;3533;51.246;6.850;2023-11-21T14:36:56;20.40;45.10
6986;DHT22;3533;51.246;6.850;2023-11-21T14:39:22;20.40;45.20
6986;DHT22;3533;51.246;6.850;2023-11-21T14:41:54;20.40;45.30
6986;DHT22;3533;51.246;6.850;2023-11-21T14:44:21;20.40;45.50
6986;DHT22;3533;51.246;6.850;2023-11-21T14:46:51;20.40;45.40
6986;DHT22;3533;51.246;6.850;2023-11-21T14:49:19;20.40;45.40
6986;DHT22;3533;51.246;6.850;2023-11-21T14:51:46;20.40;45.50
6986;DHT22;3533;51.246;6.850;2023-11-21T14:54:44;20.40;45.50
6986;DHT22;3533;51.246;6.850;2023-11-21T14:57:13;20.40;45.60
6986;DHT22;3533;51.246;6.850;2023-11-21T14:59:47;20.40;45.60
6986;DHT22;3533;51.246;6.850;2023-11-21T15:02:17;20.40;45.70
6986;DHT22;3533;51.246;6.850;2023-11-21T15:04:48;20.40;45.70
6986;DHT22;3533;51.246;6.850;2023-11-21T15:07:14;20.40;45.70
6986;DHT22;3533;51.246;6.850;2023-11-21T15:09:40;20.50;45.80
6986;DHT22;3533;51.246;6.850;2023-11-21T15:12:10;20.40;45.70
6986;DHT22;3533;51.246;6.850;2023-11-21T15:14:49;20.40;45.70
6986;DHT22;3533;51.246;6.850;2023-11-21T15:21:21;20.40;45.70
6986;DHT22;3533;51.246;6.850;2023-11-21T15:23:49;20.40;45.80
6986;DHT22;3533;51.246;6.850;2023-11-21T15:26:15;20.40;45.80
6986;DHT22;3533;51.246;6.850;2023-11-21T15:28:40;20.40;45.80
6986;DHT22;3533;51.246;6.850;2023-11-21T15:31:06;20.40;45.70
6986;DHT22;3533;51.246;6.850;2023-11-21T15:33:33;20.40;45.70
6986;DHT22;3533;51.246;6.850;2023-11-21T15:36:01;20.40;45.70
6986;DHT22;3533;51.246;6.850;2023-11-21T15:38:27;20.40;45.70
6986;DHT22;3533;51.246;6.850;2023-11-21T15:40:53;20.40;45.70
6986;DHT22;3533;51.246;6.850;2023-11-21T15:43:20;20.40;45.60
6986;DHT22;3533;51.246;6.850;2023-11-21T15:45:45;20.40;45.60
6986;DHT22;3533;51.246;6.850;2023-11-21T15:48:11;20.40;45.60
6986;DHT22;3533;51.246;6.850;2023-11-21T15:50:37;20.40;46.20
6986;DHT22;3533;51.246;6.850;2023-11-21T15:53:02;20.40;45.50
6986;DHT22;3533;51.246;6.850;2023-11-21T15:55:30;20.40;45.50
6986;DHT22;3533;51.246;6.850;2023-11-21T15:57:56;20.50;45.60
6986;DHT22;3533;51.246;6.850;2023-11-21T16:00:22;20.40;45.50
6986;DHT22;3533;51.246;6.850;2023-11-21T16:02:49;20.40;45.40
6986;DHT22;3533;51.246;6.850;2023-11-21T16:05:15;20.50;45.50
6986;DHT22;3533;51.246;6.850;2023-11-21T16:07:42;20.50;45.50
6986;DHT22;3533;51.246;6.850;2023-11-21T16:10:08;20.50;45.50
6986;DHT22;3533;51.246;6.850;2023-11-21T16:12:36;20.50;45.40
6986;DHT22;3533;51.246;6.850;2023-11-21T16:15:04;20.50;45.40
6986;DHT22;3533;51.246;6.850;2023-11-21T16:17:34;20.50;45.50
6986;DHT22;3533;51.246;6.850;2023-11-21T16:20:02;20.50;45.40
6986;DHT22;3533;51.246;6.850;2023-11-21T16:22:31;20.50;45.40